Time;durP1;ratioP1;P1;durP2;ratioP2;P2;SDS_P1;SDS_P2;PMS_P1;PMS_P2;Temp;Humidity;BMP_temperature;BMP_pressure;BME280_temperature;BME280_humidity;BME280_pressure;Samples;Min_cycle;Max_cycle;Signal;HPM_P1;HPM_P2
2021/01/14 00:02:26;;;;;;;28.13;25.10;;;3.60;99.90;;;;;;5103445;27;20814;-80
2021/01/14 00:04:53;;;;;;;30.90;26.27;;;3.50;99.90;;;;;;5107566;27;20828;-79
2021/01/14 00:07:20;;;;;;;31.73;28.27;;;3.50;99.90;;;;;;5101115;27;20493;-79
2021/01/14 00:09:48;;;;;;;31.07;27.73;;;3.50;99.90;;;;;;5097527;27;20457;-78
2021/01/14 00:12:14;;;;;;;35.90;26.80;;;3.50;99.90;;;;;;5111020;27;20461;-78
2021/01/14 00:14:41;;;;;;;27.20;24.77;;;3.60;99.90;;;;;;5103733;27;20488;-80
2021/01/14 00:17:07;;;;;;;32.43;27.17;;;3.60;99.90;;;;;;5101264;27;20508;-80
2021/01/14 00:19:33;;;;;;;28.20;25.70;;;3.50;99.90;;;;;;5108367;27;21089;-81
2021/01/14 00:22:02;;;;;;;30.77;27.50;;;3.60;99.90;;;;;;5107687;27;20461;-77
2021/01/14 00:24:28;;;;;;;28.53;25.47;;;3.60;99.90;;;;;;5108105;27;20518;-81
2021/01/14 00:26:56;;;;;;;28.20;25.33;;;3.60;99.90;;;;;;5109863;27;20495;-80
2021/01/14 00:29:22;;;;;;;28.77;23.63;;;3.60;99.90;;;;;;5113825;27;20476;-78
2021/01/14 00:31:48;;;;;;;31.63;24.47;;;3.60;99.90;;;;;;5104918;27;20457;-77
2021/01/14 00:34:15;;;;;;;23.40;21.27;;;3.60;99.90;;;;;;5102574;27;20457;-78
2021/01/14 00:39:29;;;;;;;29.30;23.90;;;3.60;99.90;;;;;;5110631;27;20467;-79
2021/01/14 00:41:56;;;;;;;27.10;24.40;;;3.60;99.90;;;;;;5094174;27;20457;-79
2021/01/14 00:44:23;;;;;;;25.77;22.73;;;3.60;99.90;;;;;;5096804;28;20469;-81
2021/01/14 00:46:54;;;;;;;24.93;22.53;;;3.60;99.90;;;;;;5097250;28;20489;-78
2021/01/14 00:49:21;;;;;;;26.17;22.00;;;3.60;99.90;;;;;;5101363;27;20508;-79
2021/01/14 00:51:47;;;;;;;21.90;19.53;;;3.60;99.90;;;;;;5099650;27;20457;-78
2021/01/14 00:54:13;;;;;;;25.20;19.27;;;3.50;99.90;;;;;;5102520;27;20508;-80
2021/01/14 00:56:41;;;;;;;23.40;19.67;;;3.50;99.90;;;;;;5104843;27;20467;-76
2021/01/14 00:59:10;;;;;;;19.27;17.50;;;3.50;99.90;;;;;;5108909;27;20551;-80
2021/01/14 01:01:41;;;;;;;21.70;19.00;;;3.50;99.90;;;;;;5106221;27;20465;-80
2021/01/14 01:04:08;;;;;;;16.27;15.30;;;3.50;99.90;;;;;;5109003;27;20776;-81
2021/01/14 01:06:37;;;;;;;17.97;16.43;;;3.40;99.90;;;;;;5100602;27;20472;-80
2021/01/14 01:09:04;;;;;;;20.50;17.43;;;3.50;99.90;;;;;;5101167;27;20458;-78
2021/01/14 01:11:32;;;;;;;16.00;15.00;;;3.40;99.90;;;;;;5097140;28;20461;-79
2021/01/14 01:13:59;;;;;;;16.73;15.30;;;3.40;99.90;;;;;;5097008;28;20456;-79
2021/01/14 01:16:27;;;;;;;20.20;15.13;;;3.40;99.90;;;;;;5105853;27;20462;-76
2021/01/14 01:18:54;;;;;;;16.93;15.30;;;3.40;99.90;;;;;;5113143;27;20464;-80
2021/01/14 01:21:21;;;;;;;16.07;14.83;;;3.40;99.90;;;;;;5107240;27;20467;-80
2021/01/14 01:23:47;;;;;;;15.37;14.27;;;3.40;99.90;;;;;;5103248;27;20461;-76
2021/01/14 01:26:16;;;;;;;17.33;15.23;;;3.40;99.90;;;;;;5098511;28;21037;-76
2021/01/14 01:28:43;;;;;;;15.40;14.10;;;3.40;99.90;;;;;;5114747;27;20485;-79
2021/01/14 01:31:12;;;;;;;17.73;15.40;;;3.40;99.90;;;;;;5106013;27;20518;-82
2021/01/14 01:33:39;;;;;;;15.07;13.97;;;3.40;99.90;;;;;;5099581;27;20507;-79
2021/01/14 01:36:06;;;;;;;16.23;14.93;;;3.40;99.90;;;;;;5088808;28;20468;-81
2021/01/14 01:38:33;;;;;;;15.33;13.90;;;3.30;99.90;;;;;;5090790;27;20454;-81
2021/01/14 01:41:00;;;;;;;15.70;14.50;;;3.40;99.90;;;;;;5097003;27;20888;-79
2021/01/14 01:43:27;;;;;;;15.53;14.07;;;3.40;99.90;;;;;;5105106;27;20488;-81
2021/01/14 01:45:55;;;;;;;15.87;14.70;;;3.40;99.90;;;;;;5108287;27;20473;-80
2021/01/14 01:48:24;;;;;;;15.80;14.17;;;3.40;99.90;;;;;;5101853;27;20461;-77
2021/01/14 01:50:54;;;;;;;15.07;14.17;;;3.30;99.90;;;;;;5102384;27;20479;-76
2021/01/14 01:53:21;;;;;;;16.53;14.77;;;3.30;99.90;;;;;;5102291;27;20457;-77
2021/01/14 01:55:48;;;;;;;15.43;13.90;;;3.40;99.90;;;;;;5107649;27;20496;-78
2021/01/14 01:58:16;;;;;;;15.30;14.20;;;3.40;99.90;;;;;;5102682;27;20472;-78
2021/01/14 02:00:42;;;;;;;15.00;13.67;;;3.30;99.90;;;;;;5109501;27;20523;-79
2021/01/14 02:03:09;;;;;;;15.43;14.23;;;3.30;99.90;;;;;;5105583;27;20453;-76
2021/01/14 02:05:37;;;;;;;16.37;14.80;;;3.40;99.90;;;;;;5103418;27;20456;-77
2021/01/14 02:08:08;;;;;;;16.97;14.10;;;3.30;99.90;;;;;;5098917;27;20636;-80
2021/01/14 02:10:39;;;;;;;15.50;14.50;;;3.30;99.90;;;;;;5104854;27;20496;-81
2021/01/14 02:13:12;;;;;;;15.50;14.20;;;3.30;99.90;;;;;;5113869;27;20457;-80
2021/01/14 02:15:40;;;;;;;16.00;14.33;;;3.20;99.90;;;;;;5104329;27;20485;-80
2021/01/14 02:18:07;;;;;;;15.67;14.20;;;3.20;99.90;;;;;;5095927;27;20858;-79
2021/01/14 02:20:34;;;;;;;14.57;13.60;;;3.20;99.90;;;;;;5097687;27;20468;-80
2021/01/14 02:23:11;;;;;;;15.60;14.17;;;3.20;99.90;;;;;;5108431;27;20468;-77
2021/01/14 02:26:09;;;;;;;17.63;13.30;;;3.20;99.90;;;;;;5106176;27;20839;-82
2021/01/14 02:28:38;;;;;;;20.50;13.00;;;3.20;99.90;;;;;;5093292;28;20485;-78
2021/01/14 02:31:06;;;;;;;20.70;14.10;;;3.20;99.90;;;;;;5104929;27;20457;-81
2021/01/14 02:33:32;;;;;;;15.03;13.67;;;3.10;99.90;;;;;;5098984;28;20951;-78
2021/01/14 02:35:58;;;;;;;14.03;12.93;;;3.10;99.90;;;;;;5101026;27;20460;-80
2021/01/14 02:38:24;;;;;;;14.73;13.30;;;3.10;99.90;;;;;;5099755;27;20458;-80
2021/01/14 02:40:55;;;;;;;15.00;13.70;;;3.10;99.90;;;;;;5101497;27;20636;-78
2021/01/14 02:43:22;;;;;;;17.10;12.83;;;3.10;99.90;;;;;;5100478;28;20452;-79
2021/01/14 02:45:49;;;;;;;15.23;14.00;;;3.10;99.90;;;;;;5101316;28;20495;-81
2021/01/14 02:48:20;;;;;;;14.10;13.13;;;3.10;99.90;;;;;;5101073;28;20465;-76
2021/01/14 02:50:52;;;;;;;14.87;13.33;;;3.10;99.90;;;;;;5109163;28;20457;-78
2021/01/14 02:53:19;;;;;;;14.90;13.80;;;3.10;99.90;;;;;;5105625;28;20457;-81
2021/01/14 02:55:47;;;;;;;14.03;13.00;;;3.00;99.90;;;;;;5110634;28;20456;-81
2021/01/14 02:58:15;;;;;;;16.80;12.90;;;3.10;99.90;;;;;;5102633;28;21004;-76
2021/01/14 03:00:43;;;;;;;13.73;12.70;;;3.00;99.90;;;;;;5098817;28;20457;-77
2021/01/14 03:03:10;;;;;;;13.93;12.80;;;3.00;99.90;;;;;;5107024;28;20989;-79
2021/01/14 03:05:36;;;;;;;14.23;13.17;;;2.90;99.90;;;;;;5100745;28;20466;-76
2021/01/14 03:08:03;;;;;;;13.93;12.70;;;2.90;99.90;;;;;;5103026;28;20476;-77
2021/01/14 03:10:31;;;;;;;14.53;13.30;;;2.90;99.90;;;;;;5100310;28;20446;-77
2021/01/14 03:12:57;;;;;;;14.40;13.23;;;2.90;99.90;;;;;;5104845;28;20468;-79
2021/01/14 03:15:25;;;;;;;14.40;12.87;;;2.90;99.90;;;;;;5107519;28;20483;-81
2021/01/14 03:17:53;;;;;;;14.53;13.53;;;2.80;99.90;;;;;;5115338;28;20456;-77
2021/01/14 03:20:20;;;;;;;13.77;12.80;;;2.70;99.90;;;;;;5107299;28;20475;-79
2021/01/14 03:22:46;;;;;;;15.20;13.97;;;2.70;99.90;;;;;;5101695;28;20832;-77
2021/01/14 03:25:13;;;;;;;15.77;14.20;;;2.60;99.90;;;;;;5097886;28;20502;-77
2021/01/14 03:27:41;;;;;;;14.73;13.53;;;2.60;99.90;;;;;;5100317;28;21248;-77
2021/01/14 03:30:11;;;;;;;14.63;13.43;;;2.60;99.90;;;;;;5109083;28;20493;-80
2021/01/14 03:32:39;;;;;;;14.33;13.33;;;2.60;99.90;;;;;;5107532;28;20467;-79
2021/01/14 03:35:07;;;;;;;14.87;13.60;;;2.50;99.90;;;;;;5099112;28;20511;-78
2021/01/14 03:37:36;;;;;;;15.57;13.97;;;2.50;99.90;;;;;;5103632;28;20461;-82
2021/01/14 03:40:03;;;;;;;15.13;14.13;;;2.50;99.90;;;;;;5098200;28;20740;-78
2021/01/14 03:42:29;;;;;;;14.67;13.40;;;2.50;99.90;;;;;;5098256;28;20814;-80
2021/01/14 03:44:55;;;;;;;14.13;13.27;;;2.50;99.90;;;;;;5106655;28;20458;-77
2021/01/14 03:47:24;;;;;;;14.20;13.30;;;2.40;99.90;;;;;;5108191;28;20471;-78
2021/01/14 03:49:51;;;;;;;18.60;14.10;;;2.40;99.90;;;;;;5101877;28;20873;-78
2021/01/14 03:52:18;;;;;;;15.73;13.90;;;2.30;99.90;;;;;;5107220;28;20528;-79
2021/01/14 03:54:46;;;;;;;14.53;13.53;;;2.20;99.90;;;;;;5110873;28;20461;-78
2021/01/14 03:57:13;;;;;;;15.20;13.73;;;2.20;99.90;;;;;;5110792;28;20518;-79
2021/01/14 03:59:40;;;;;;;16.53;14.50;;;2.10;99.90;;;;;;5099029;27;20457;-79
2021/01/14 04:02:06;;;;;;;15.33;14.17;;;2.00;99.90;;;;;;5104585;27;20527;-78
2021/01/14 04:04:34;;;;;;;16.57;14.97;;;2.00;99.90;;;;;;5109599;27;20575;-79
2021/01/14 04:07:01;;;;;;;16.03;14.37;;;2.10;99.90;;;;;;5101785;27;20580;-78
2021/01/14 04:09:28;;;;;;;15.00;14.00;;;2.10;99.90;;;;;;5103297;27;20529;-80
2021/01/14 04:11:54;;;;;;;13.87;13.17;;;2.10;99.90;;;;;;5114741;27;20518;-78
2021/01/14 04:14:21;;;;;;;15.00;13.70;;;2.10;99.90;;;;;;5105360;27;20517;-78
2021/01/14 04:16:50;;;;;;;15.13;13.87;;;2.10;99.90;;;;;;5108464;27;20480;-78
2021/01/14 04:19:18;;;;;;;15.17;13.90;;;2.10;99.90;;;;;;5112198;27;20453;-79
2021/01/14 04:21:45;;;;;;;14.30;13.27;;;2.10;99.90;;;;;;5107999;27;20465;-79
2021/01/14 04:24:14;;;;;;;13.83;13.03;;;2.10;99.90;;;;;;5110203;27;20966;-78
2021/01/14 04:26:40;;;;;;;14.87;13.50;;;2.10;99.90;;;;;;5102866;27;20473;-78
2021/01/14 04:29:07;;;;;;;15.13;13.93;;;2.10;99.90;;;;;;5105685;27;20478;-76
2021/01/14 04:31:35;;;;;;;15.10;13.80;;;2.10;99.90;;;;;;5108636;27;20851;-80
2021/01/14 04:34:01;;;;;;;14.23;13.20;;;2.00;99.90;;;;;;5111039;27;20461;-78
2021/01/14 04:36:28;;;;;;;22.87;15.13;;;2.10;99.90;;;;;;5104370;27;20460;-78
2021/01/14 04:38:55;;;;;;;16.80;15.20;;;2.00;99.90;;;;;;5098071;27;20458;-78
2021/01/14 04:41:23;;;;;;;15.03;13.80;;;2.10;99.90;;;;;;5107870;27;20464;-77
2021/01/14 04:43:49;;;;;;;14.50;13.43;;;2.10;99.90;;;;;;5109778;27;20457;-79
2021/01/14 04:46:16;;;;;;;14.93;13.97;;;2.10;99.90;;;;;;5110755;27;20817;-80
2021/01/14 04:48:44;;;;;;;14.57;13.47;;;2.10;99.90;;;;;;5098462;27;20468;-77
2021/01/14 04:51:12;;;;;;;15.43;14.33;;;2.10;99.90;;;;;;5111951;27;20809;-80
2021/01/14 04:53:40;;;;;;;15.57;13.90;;;2.10;99.90;;;;;;5099323;27;20453;-76
2021/01/14 04:56:08;;;;;;;14.90;13.90;;;2.10;99.90;;;;;;5100766;28;20469;-79
2021/01/14 04:58:37;;;;;;;14.93;13.67;;;2.10;99.90;;;;;;5113094;27;20781;-77
2021/01/14 05:01:06;;;;;;;14.83;13.53;;;2.10;99.90;;;;;;5106496;27;20461;-79
2021/01/14 05:03:38;;;;;;;15.07;14.07;;;2.10;99.90;;;;;;5098066;27;20515;-78
2021/01/14 05:06:06;;;;;;;14.90;13.93;;;2.10;99.90;;;;;;5100285;27;20461;-81
2021/01/14 05:08:34;;;;;;;26.20;15.50;;;2.10;99.90;;;;;;5111428;27;20460;-76
2021/01/14 05:11:02;;;;;;;16.80;15.23;;;2.00;99.90;;;;;;5098967;27;20454;-77
2021/01/14 05:13:32;;;;;;;15.10;14.20;;;2.10;99.90;;;;;;5105344;27;21023;-77
2021/01/14 05:16:02;;;;;;;16.37;14.70;;;2.10;99.90;;;;;;5106439;27;20540;-77
2021/01/14 05:18:29;;;;;;;19.83;13.93;;;2.10;99.90;;;;;;5100272;28;20464;-77
2021/01/14 05:20:58;;;;;;;15.57;14.17;;;2.10;99.90;;;;;;5093328;28;20458;-79
2021/01/14 05:23:25;;;;;;;15.23;14.10;;;2.00;99.90;;;;;;5103699;27;20497;-79
2021/01/14 05:25:53;;;;;;;18.10;14.37;;;2.00;99.90;;;;;;5104580;27;20483;-77
2021/01/14 05:28:21;;;;;;;16.03;14.87;;;2.00;99.90;;;;;;5105106;27;20840;-77
2021/01/14 05:30:48;;;;;;;15.93;14.73;;;2.00;99.90;;;;;;5108479;27;20453;-78
2021/01/14 05:33:19;;;;;;;16.70;14.33;;;2.00;99.90;;;;;;5112703;27;20456;-78
2021/01/14 05:35:49;;;;;;;15.47;14.10;;;1.90;99.90;;;;;;5108843;27;20804;-80
2021/01/14 05:38:23;;;;;;;14.93;13.90;;;1.90;99.90;;;;;;5093448;27;20714;-79
2021/01/14 05:43:31;;;;;;;16.40;15.13;;;1.80;99.90;;;;;;5112609;27;20452;-77
2021/01/14 05:46:15;;;;;;;14.63;13.60;;;1.80;99.90;;;;;;5101828;27;20538;-77
2021/01/14 05:48:44;;;;;;;14.93;13.87;;;1.80;99.90;;;;;;5093924;28;20465;-78
2021/01/14 05:51:19;;;;;;;15.43;14.20;;;1.80;99.90;;;;;;5097315;27;20488;-80
2021/01/14 05:53:59;;;;;;;16.43;14.10;;;1.80;99.90;;;;;;5100452;27;20453;-79
2021/01/14 05:56:34;;;;;;;16.60;14.97;;;1.80;99.90;;;;;;5095335;27;20987;-76
2021/01/14 05:59:01;;;;;;;15.17;14.17;;;1.80;99.90;;;;;;5111213;27;20460;-75
2021/01/14 06:01:28;;;;;;;14.90;14.10;;;1.80;99.90;;;;;;5100208;28;20488;-80
2021/01/14 06:04:12;;;;;;;17.40;14.27;;;1.80;99.90;;;;;;5102430;27;21276;-77
2021/01/14 06:06:39;;;;;;;15.30;14.33;;;1.80;99.90;;;;;;5107767;27;20485;-79
2021/01/14 06:09:07;;;;;;;14.80;13.67;;;1.70;99.90;;;;;;5102755;27;20460;-81
2021/01/14 06:11:34;;;;;;;14.90;13.90;;;1.70;99.90;;;;;;5102110;27;20519;-79
2021/01/14 06:14:00;;;;;;;20.30;15.57;;;1.70;99.90;;;;;;5102184;28;20454;-80
2021/01/14 06:16:27;;;;;;;15.07;14.03;;;1.70;99.90;;;;;;5109408;27;20869;-78
2021/01/14 06:19:08;;;;;;;16.30;14.77;;;1.60;99.90;;;;;;5108585;27;20492;-78
2021/01/14 06:21:46;;;;;;;16.83;15.37;;;1.70;99.90;;;;;;5106140;27;20483;-79
2021/01/14 06:24:19;;;;;;;15.70;14.70;;;1.60;99.90;;;;;;5108894;28;20482;-80
2021/01/14 06:26:47;;;;;;;15.10;14.07;;;1.60;99.90;;;;;;5100252;27;20508;-81
2021/01/14 06:29:18;;;;;;;15.43;14.07;;;1.60;99.90;;;;;;5100031;27;20840;-78
2021/01/14 06:31:45;;;;;;;22.87;14.70;;;1.60;99.90;;;;;;5102250;27;20563;-77
2021/01/14 06:34:17;;;;;;;16.13;14.87;;;1.60;99.90;;;;;;5100670;28;20461;-77
2021/01/14 06:36:48;;;;;;;16.30;14.57;;;1.60;99.90;;;;;;5099754;28;20535;-77
2021/01/14 06:39:16;;;;;;;17.37;15.17;;;1.60;99.90;;;;;;5103121;28;20508;-79
2021/01/14 06:41:44;;;;;;;16.37;15.27;;;1.60;99.90;;;;;;5102136;28;20465;-80
2021/01/14 06:44:19;;;;;;;16.67;15.13;;;1.60;99.90;;;;;;5110343;27;20556;-80
2021/01/14 06:46:46;;;;;;;15.63;14.20;;;1.60;99.90;;;;;;5100234;28;20517;-79
2021/01/14 06:49:16;;;;;;;16.20;15.10;;;1.50;99.90;;;;;;5108571;28;20456;-79
2021/01/14 06:51:52;;;;;;;16.27;15.03;;;1.50;99.90;;;;;;5094095;28;20949;-77
2021/01/14 06:54:19;;;;;;;16.83;15.63;;;1.50;99.90;;;;;;5103462;28;20558;-79
2021/01/14 06:56:56;;;;;;;17.93;15.50;;;1.40;99.90;;;;;;5101674;28;20473;-80
2021/01/14 06:59:23;;;;;;;16.90;15.70;;;1.40;99.90;;;;;;5099932;28;20460;-80
2021/01/14 07:02:23;;;;;;;17.40;16.07;;;1.40;99.90;;;;;;5101799;28;20455;-78
2021/01/14 07:05:02;;;;;;;16.23;14.80;;;1.40;99.90;;;;;;5060155;28;20460;-76
2021/01/14 07:07:46;;;;;;;16.67;15.70;;;1.40;99.90;;;;;;5097700;28;20485;-77
2021/01/14 07:10:16;;;;;;;17.57;15.90;;;1.40;99.90;;;;;;5104922;28;20461;-80
2021/01/14 07:12:44;;;;;;;16.40;15.10;;;1.40;99.90;;;;;;5107664;28;20463;-79
2021/01/14 07:15:12;;;;;;;17.97;16.33;;;1.40;99.90;;;;;;5108688;27;20816;-78
2021/01/14 07:17:40;;;;;;;18.00;16.47;;;1.40;99.90;;;;;;5097615;28;20465;-79
2021/01/14 07:20:10;;;;;;;17.97;16.43;;;1.40;99.90;;;;;;5103550;28;20490;-80
2021/01/14 07:22:47;;;;;;;18.33;16.90;;;1.30;99.90;;;;;;5106143;28;20468;-79
2021/01/14 07:25:15;;;;;;;18.30;16.70;;;1.30;99.90;;;;;;5106397;28;20456;-79
2021/01/14 07:27:43;;;;;;;17.57;16.40;;;1.30;99.90;;;;;;5099355;28;20492;-78
2021/01/14 07:30:11;;;;;;;24.17;17.00;;;1.40;99.90;;;;;;5096891;28;20543;-75
2021/01/14 07:32:54;;;;;;;17.90;16.40;;;1.30;99.90;;;;;;5097635;28;20464;-80
2021/01/14 07:35:41;;;;;;;30.83;17.57;;;1.30;99.90;;;;;;5100817;27;20463;-77
2021/01/14 07:38:09;;;;;;;18.13;16.50;;;1.40;99.90;;;;;;5104623;27;20506;-79
2021/01/14 07:40:37;;;;;;;17.40;16.40;;;1.40;99.90;;;;;;5110369;27;20513;-78
2021/01/14 07:43:07;;;;;;;21.50;16.00;;;1.40;99.90;;;;;;5105327;27;20460;-80
2021/01/14 07:45:34;;;;;;;17.97;16.30;;;1.40;99.90;;;;;;5098980;28;20477;-79
2021/01/14 07:48:33;;;;;;;17.97;16.57;;;1.40;99.90;;;;;;5100248;27;20480;-79
2021/01/14 07:51:03;;;;;;;17.77;15.57;;;1.40;99.90;;;;;;5022189;28;20464;-81
2021/01/14 07:53:30;;;;;;;17.70;16.27;;;1.50;99.90;;;;;;5095449;27;20961;-80
2021/01/14 07:56:16;;;;;;;16.50;14.93;;;1.50;99.90;;;;;;5104220;27;20470;-79
2021/01/14 07:58:47;;;;;;;16.53;15.33;;;1.60;99.90;;;;;;5108789;27;20946;-79
2021/01/14 08:01:13;;;;;;;21.67;17.10;;;1.60;99.90;;;;;;5110054;27;20455;-78
2021/01/14 08:03:41;;;;;;;17.00;15.70;;;1.70;99.90;;;;;;5108741;27;20793;-77
2021/01/14 08:06:19;;;;;;;16.47;15.30;;;1.70;99.90;;;;;;5097563;28;20456;-76
2021/01/14 08:08:57;;;;;;;17.80;16.30;;;1.80;99.90;;;;;;5096540;28;20542;-76
2021/01/14 08:11:25;;;;;;;41.77;16.50;;;1.80;99.90;;;;;;5099539;27;20484;-76
2021/01/14 08:14:10;;;;;;;17.70;16.13;;;1.80;99.90;;;;;;5101805;27;20468;-79
2021/01/14 08:16:40;;;;;;;18.07;16.50;;;1.90;99.90;;;;;;5097426;27;20460;-80
2021/01/14 08:19:15;;;;;;;19.60;18.00;;;1.90;99.90;;;;;;5104599;27;20475;-80
2021/01/14 08:21:43;;;;;;;18.30;16.50;;;1.90;99.90;;;;;;5103009;27;20956;-78
2021/01/14 08:24:10;;;;;;;17.90;16.40;;;1.90;99.90;;;;;;5101394;28;20480;-81
2021/01/14 08:26:59;;;;;;;18.13;16.30;;;1.90;99.90;;;;;;5102455;27;20886;-80
2021/01/14 08:29:34;;;;;;;16.40;15.20;;;2.00;99.90;;;;;;5101851;27;20485;-76
2021/01/14 08:32:02;;;;;;;17.77;16.37;;;2.00;99.90;;;;;;5099563;27;20489;-79
2021/01/14 08:34:29;;;;;;;19.17;16.70;;;2.00;99.90;;;;;;5100490;28;20489;-80
2021/01/14 08:36:57;;;;;;;18.83;17.23;;;2.10;99.90;;;;;;5100680;27;20473;-77
2021/01/14 08:39:26;;;;;;;19.07;17.20;;;2.20;99.90;;;;;;5103321;27;20870;-79
2021/01/14 08:41:53;;;;;;;20.97;17.30;;;2.10;99.90;;;;;;5102101;28;20457;-79
2021/01/14 08:44:29;;;;;;;20.70;18.63;;;2.20;99.90;;;;;;5100100;27;20483;-81
2021/01/14 08:46:55;;;;;;;19.47;17.83;;;2.20;99.90;;;;;;5098357;28;21299;-77
2021/01/14 08:49:22;;;;;;;18.20;16.60;;;2.30;99.90;;;;;;5105008;27;20491;-79
2021/01/14 08:51:49;;;;;;;17.83;16.23;;;2.30;99.90;;;;;;5098843;27;20523;-78
2021/01/14 08:54:16;;;;;;;18.63;16.60;;;2.30;99.90;;;;;;5096830;27;20514;-80
2021/01/14 08:56:44;;;;;;;17.17;15.43;;;2.40;99.90;;;;;;5097062;27;20457;-79
2021/01/14 08:59:16;;;;;;;16.60;15.10;;;2.30;99.90;;;;;;5104955;27;20810;-76
2021/01/14 09:01:43;;;;;;;16.70;15.50;;;2.40;99.90;;;;;;5096078;28;20468;-79
2021/01/14 09:04:11;;;;;;;16.60;15.20;;;2.50;99.90;;;;;;5093471;27;20489;-79
2021/01/14 09:06:39;;;;;;;16.90;15.60;;;2.50;99.90;;;;;;5104290;27;20832;-78
2021/01/14 09:09:06;;;;;;;18.73;16.70;;;2.50;99.90;;;;;;5095049;28;20465;-79
2021/01/14 09:11:34;;;;;;;17.70;16.20;;;2.50;99.90;;;;;;5100720;27;20484;-79
2021/01/14 09:14:06;;;;;;;17.43;15.97;;;2.60;99.90;;;;;;5103808;27;20451;-78
2021/01/14 09:16:33;;;;;;;18.30;16.87;;;2.60;99.90;;;;;;5099808;27;20509;-76
2021/01/14 09:18:59;;;;;;;17.87;16.57;;;2.60;99.90;;;;;;5098215;28;20487;-77
2021/01/14 09:21:28;;;;;;;21.93;18.27;;;2.70;99.90;;;;;;5097227;27;20527;-77
2021/01/14 09:23:55;;;;;;;25.67;17.00;;;2.80;99.90;;;;;;5102412;27;20458;-77
2021/01/14 09:26:21;;;;;;;18.73;16.43;;;2.80;99.90;;;;;;5100594;28;20965;-76
2021/01/14 09:28:50;;;;;;;17.00;15.90;;;2.80;99.90;;;;;;5100655;28;21063;-77
2021/01/14 09:31:19;;;;;;;16.60;15.40;;;2.70;99.90;;;;;;5110199;27;20554;-80
2021/01/14 09:33:47;;;;;;;16.93;15.33;;;2.90;99.90;;;;;;5098118;27;20960;-80
2021/01/14 09:36:15;;;;;;;17.20;15.80;;;2.80;99.90;;;;;;5101750;27;20469;-79
2021/01/14 09:38:52;;;;;;;15.73;14.73;;;2.80;99.90;;;;;;5113195;27;20461;-81
2021/01/14 09:41:24;;;;;;;16.80;15.50;;;2.90;99.90;;;;;;5107480;27;20466;-77
2021/01/14 09:43:52;;;;;;;15.73;14.57;;;2.90;99.90;;;;;;5101075;27;20461;-77
2021/01/14 09:46:21;;;;;;;16.20;14.80;;;2.80;99.90;;;;;;5100524;27;20477;-78
2021/01/14 09:48:50;;;;;;;17.20;15.70;;;2.90;99.90;;;;;;5100583;27;21013;-75
2021/01/14 09:51:16;;;;;;;16.93;15.50;;;3.00;99.90;;;;;;5104950;27;20997;-76
2021/01/14 09:53:45;;;;;;;15.97;14.70;;;3.00;99.90;;;;;;5107287;27;20463;-76
2021/01/14 09:56:16;;;;;;;15.90;14.90;;;3.10;99.90;;;;;;5098273;27;20492;-78
2021/01/14 09:58:46;;;;;;;17.50;16.20;;;3.10;99.90;;;;;;5103745;27;20565;-80
2021/01/14 10:01:17;;;;;;;15.87;14.87;;;3.20;99.90;;;;;;5100454;28;20958;-79
2021/01/14 10:03:48;;;;;;;16.70;15.50;;;3.00;99.90;;;;;;5099746;28;20483;-74
2021/01/14 10:06:16;;;;;;;16.93;15.63;;;2.90;99.90;;;;;;5101695;28;20454;-82
2021/01/14 10:08:48;;;;;;;16.60;15.50;;;2.90;99.90;;;;;;5100246;28;20520;-77
2021/01/14 10:11:15;;;;;;;15.90;14.77;;;2.90;99.90;;;;;;5102040;27;20460;-77
2021/01/14 10:13:48;;;;;;;16.93;15.70;;;3.10;99.90;;;;;;5101931;28;20550;-76
2021/01/14 10:16:19;;;;;;;17.47;16.10;;;3.20;99.90;;;;;;5099187;27;20494;-78
2021/01/14 10:18:45;;;;;;;16.03;14.70;;;3.00;99.90;;;;;;5098145;28;20461;-76
2021/01/14 10:21:14;;;;;;;16.50;15.13;;;3.20;99.90;;;;;;5100532;27;20455;-75
2021/01/14 10:23:40;;;;;;;16.53;15.53;;;3.20;99.90;;;;;;5104542;27;20538;-77
2021/01/14 10:26:07;;;;;;;16.87;15.33;;;3.10;99.90;;;;;;5099564;27;20473;-74
2021/01/14 10:28:43;;;;;;;16.13;14.97;;;3.30;99.90;;;;;;5099262;27;20527;-75
2021/01/14 10:31:09;;;;;;;16.30;15.20;;;3.20;99.90;;;;;;5095879;27;20448;-77
2021/01/14 10:33:37;;;;;;;17.63;16.43;;;3.30;99.90;;;;;;5103620;27;20469;-74
2021/01/14 10:36:03;;;;;;;27.60;16.67;;;3.30;99.90;;;;;;5108617;27;20543;-77
2021/01/14 10:38:31;;;;;;;16.70;15.40;;;3.40;99.90;;;;;;5101163;27;20464;-76
2021/01/14 10:40:58;;;;;;;17.33;16.13;;;3.50;99.90;;;;;;5094935;28;20546;-77
2021/01/14 10:43:34;;;;;;;16.70;15.20;;;3.50;99.90;;;;;;5102529;28;20502;-77
2021/01/14 10:46:01;;;;;;;16.90;15.30;;;3.70;99.90;;;;;;5099964;27;20582;-77
2021/01/14 10:48:37;;;;;;;19.17;16.77;;;3.80;99.90;;;;;;5100843;28;20524;-75
2021/01/14 10:51:03;;;;;;;17.10;14.77;;;3.80;99.90;;;;;;5102602;28;20467;-75
2021/01/14 10:53:33;;;;;;;17.40;15.67;;;3.70;99.90;;;;;;5100984;28;20968;-78
2021/01/14 10:56:07;;;;;;;16.67;15.47;;;3.80;99.90;;;;;;5104268;28;20991;-78
2021/01/14 10:58:34;;;;;;;16.97;15.43;;;3.90;99.90;;;;;;5095806;28;20453;-78
2021/01/14 11:01:01;;;;;;;17.73;16.00;;;3.90;99.90;;;;;;5097264;28;20461;-78
2021/01/14 11:03:29;;;;;;;16.47;15.17;;;3.90;99.90;;;;;;5101234;28;20464;-77
2021/01/14 11:05:58;;;;;;;17.50;16.13;;;4.00;99.90;;;;;;5101482;28;20460;-78
2021/01/14 11:08:26;;;;;;;17.33;16.03;;;4.00;99.90;;;;;;5101491;28;20503;-76
2021/01/14 11:11:04;;;;;;;16.50;15.00;;;3.80;99.90;;;;;;5101073;27;20496;-77
2021/01/14 11:13:38;;;;;;;16.20;14.90;;;3.80;99.90;;;;;;5101655;27;20459;-75
2021/01/14 11:16:06;;;;;;;17.67;15.87;;;3.70;99.90;;;;;;5102062;27;20460;-74
2021/01/14 11:18:35;;;;;;;24.07;16.70;;;3.70;99.90;;;;;;5102026;27;20465;-77
2021/01/14 11:21:03;;;;;;;16.50;15.20;;;3.80;99.90;;;;;;5104178;27;20464;-78
2021/01/14 11:23:29;;;;;;;16.77;15.50;;;4.00;99.90;;;;;;5096164;27;20459;-77
2021/01/14 11:25:56;;;;;;;19.00;17.10;;;4.00;99.90;;;;;;5094978;27;21003;-76
2021/01/14 11:28:22;;;;;;;19.43;16.40;;;4.10;99.90;;;;;;5102779;27;20828;-77
2021/01/14 11:30:48;;;;;;;18.10;16.47;;;4.20;99.90;;;;;;5078157;28;20917;-77
2021/01/14 11:33:15;;;;;;;17.23;15.93;;;4.10;99.90;;;;;;5080576;28;20821;-75
2021/01/14 11:35:41;;;;;;;17.70;16.27;;;4.10;99.90;;;;;;5082229;28;20463;-78
2021/01/14 11:38:08;;;;;;;18.47;17.07;;;4.10;99.90;;;;;;5083208;28;20464;-78
2021/01/14 11:40:34;;;;;;;18.20;16.27;;;4.10;99.90;;;;;;5084283;28;20964;-76
2021/01/14 11:43:02;;;;;;;16.03;14.83;;;4.20;99.90;;;;;;5085050;28;20466;-76
2021/01/14 11:45:30;;;;;;;17.33;16.03;;;4.30;99.90;;;;;;5075931;28;20966;-77
2021/01/14 11:47:56;;;;;;;17.73;15.93;;;4.40;99.90;;;;;;5089126;28;20481;-78
2021/01/14 11:50:23;;;;;;;17.30;15.50;;;4.60;99.90;;;;;;5084863;28;20552;-79
2021/01/14 11:52:50;;;;;;;16.87;15.60;;;4.50;99.90;;;;;;5083610;28;20511;-76
2021/01/14 11:55:17;;;;;;;19.47;17.03;;;4.60;99.90;;;;;;5084115;28;20528;-78
2021/01/14 11:57:43;;;;;;;20.37;18.50;;;4.60;99.90;;;;;;5084980;28;20474;-78
2021/01/14 12:00:11;;;;;;;18.93;16.83;;;4.60;99.90;;;;;;5078443;28;20576;-79
2021/01/14 12:02:39;;;;;;;18.03;16.43;;;4.60;99.90;;;;;;5087537;28;20455;-76
2021/01/14 12:05:06;;;;;;;20.70;18.67;;;4.50;99.90;;;;;;5093253;28;20535;-76
2021/01/14 12:07:33;;;;;;;18.23;16.83;;;4.60;99.90;;;;;;5089901;28;20473;-76
2021/01/14 12:10:00;;;;;;;19.87;17.97;;;4.70;99.90;;;;;;5075467;28;20474;-78
2021/01/14 12:12:27;;;;;;;20.10;18.10;;;4.80;99.90;;;;;;5082722;28;20474;-76
2021/01/14 12:14:54;;;;;;;19.33;17.77;;;4.70;99.90;;;;;;5084619;28;20525;-77
2021/01/14 12:17:21;;;;;;;20.10;18.20;;;4.80;99.90;;;;;;5075823;28;20474;-79
2021/01/14 12:19:47;;;;;;;19.93;18.43;;;4.70;99.90;;;;;;5080536;28;20791;-78
2021/01/14 12:22:14;;;;;;;20.03;17.90;;;4.60;99.90;;;;;;5072343;28;20457;-78
2021/01/14 12:24:40;;;;;;;19.13;17.37;;;4.70;99.90;;;;;;5085997;28;21026;-78
2021/01/14 12:27:08;;;;;;;19.33;17.70;;;4.60;99.90;;;;;;5087503;28;20524;-78
2021/01/14 12:29:35;;;;;;;18.90;17.60;;;4.70;99.90;;;;;;5081947;28;20478;-76
2021/01/14 12:32:04;;;;;;;18.97;17.40;;;4.70;99.90;;;;;;5079250;28;20458;-76
2021/01/14 12:34:31;;;;;;;19.50;17.50;;;4.60;99.90;;;;;;5078859;28;20462;-77
2021/01/14 12:36:59;;;;;;;19.37;17.73;;;4.60;99.90;;;;;;5077528;28;20458;-77
2021/01/14 12:39:26;;;;;;;24.63;17.07;;;4.70;99.90;;;;;;5084156;28;20798;-78
2021/01/14 12:41:53;;;;;;;19.00;17.53;;;4.70;99.90;;;;;;5086422;28;22849;-76
2021/01/14 12:44:22;;;;;;;18.73;17.20;;;4.80;99.90;;;;;;5082492;28;20462;-76
2021/01/14 12:46:50;;;;;;;19.33;17.73;;;4.80;99.90;;;;;;5084355;28;20486;-75
2021/01/14 12:49:18;;;;;;;24.93;17.27;;;4.90;99.90;;;;;;5085792;28;20485;-75
2021/01/14 12:51:46;;;;;;;22.00;17.50;;;5.00;99.90;;;;;;5076785;28;20835;-77